Time;durP1;ratioP1;P1;durP2;ratioP2;P2;SDS_P1;SDS_P2;PMS_P1;PMS_P2;Temp;Humidity;BMP_temperature;BMP_pressure;BME280_temperature;BME280_humidity;BME280_pressure;Samples;Min_cycle;Max_cycle;Signal;HPM_P1;HPM_P2
2022/05/13 00:00:42;;;;;;;8.75;3.42;;;9.70;99.90;;;;;;4954595;28;20051;-75
2022/05/13 00:03:08;;;;;;;;;;;9.70;99.90;;;;;;4954364;29;20526;-73
2022/05/13 00:05:33;;;;;;;11.50;3.37;;;9.70;99.90;;;;;;4954563;29;20020;-74
2022/05/13 00:07:59;;;;;;;10.30;3.30;;;9.70;99.90;;;;;;4955678;29;20110;-73
2022/05/13 00:10:25;;;;;;;10.57;3.10;;;9.70;99.90;;;;;;4956608;28;20353;-73
2022/05/13 00:12:52;;;;;;;8.98;2.97;;;9.70;99.90;;;;;;4954188;29;20047;-74
2022/05/13 00:15:21;;;;;;;9.80;3.03;;;9.70;99.90;;;;;;4955767;29;20039;-74
2022/05/13 00:17:47;;;;;;;8.50;2.65;;;9.70;99.90;;;;;;4955003;28;20500;-74
2022/05/13 00:20:14;;;;;;;5.30;2.50;;;9.70;99.90;;;;;;4954256;29;20106;-74
2022/05/13 00:22:50;;;;;;;13.43;2.25;;;9.60;99.90;;;;;;4955205;29;20074;-74
2022/05/13 00:25:18;;;;;;;7.78;2.50;;;9.70;99.90;;;;;;4955216;28;20045;-74
2022/05/13 00:27:45;;;;;;;11.48;2.20;;;9.70;99.90;;;;;;4954011;28;20106;-74
2022/05/13 00:30:11;;;;;;;6.20;2.03;;;9.80;99.90;;;;;;4955541;29;20101;-74
2022/05/13 00:32:39;;;;;;;12.90;2.33;;;9.90;99.90;;;;;;4954906;28;20565;-74
2022/05/13 00:35:06;;;;;;;5.93;1.70;;;9.90;99.90;;;;;;4953984;29;20058;-74
2022/05/13 00:37:32;;;;;;;6.25;1.88;;;9.90;99.90;;;;;;4954499;29;20262;-74
2022/05/13 00:39:58;;;;;;;7.05;1.70;;;10.00;99.90;;;;;;4955366;28;20481;-75
2022/05/13 00:42:24;;;;;;;8.45;1.70;;;10.00;99.90;;;;;;4953784;29;20087;-74
2022/05/13 00:44:50;;;;;;;6.70;1.90;;;10.10;99.90;;;;;;4954908;29;20043;-74
2022/05/13 00:47:15;;;;;;;7.13;1.92;;;10.10;99.90;;;;;;4954694;28;20057;-74
2022/05/13 00:49:42;;;;;;;8.40;1.92;;;10.10;99.90;;;;;;4953912;28;20386;-74
2022/05/13 00:52:10;;;;;;;7.28;2.22;;;10.20;99.90;;;;;;4954621;29;20082;-73
2022/05/13 00:54:38;;;;;;;7.22;2.10;;;10.20;99.90;;;;;;4954388;29;20073;-74
2022/05/13 00:57:05;;;;;;;6.65;2.28;;;10.30;99.90;;;;;;4954601;28;20110;-75
2022/05/13 00:59:34;;;;;;;12.52;2.45;;;10.40;99.90;;;;;;4969126;28;20499;-74
2022/05/13 01:02:00;;;;;;;6.43;2.05;;;10.40;99.90;;;;;;4954856;29;20245;-73
2022/05/13 01:04:28;;;;;;;7.72;2.38;;;10.50;99.90;;;;;;4954631;28;20134;-74
2022/05/13 01:06:58;;;;;;;8.10;1.95;;;10.50;99.90;;;;;;4954501;29;20047;-75
2022/05/13 01:09:28;;;;;;;8.82;1.88;;;10.50;99.90;;;;;;4954624;28;20142;-74
2022/05/13 01:11:57;;;;;;;7.65;2.17;;;10.50;99.90;;;;;;4954785;29;20055;-73
2022/05/13 01:14:28;;;;;;;7.63;2.30;;;10.50;99.90;;;;;;4954369;28;20074;-74
2022/05/13 01:19:38;;;;;;;5.90;2.50;;;10.50;99.90;;;;;;4954412;29;20468;-73
2022/05/13 01:22:16;;;;;;;10.00;2.22;;;10.40;99.90;;;;;;4954202;28;20047;-75
2022/05/13 01:24:42;;;;;;;6.95;2.00;;;10.50;99.90;;;;;;4954097;29;20046;-74
2022/05/13 01:27:08;;;;;;;9.80;2.53;;;10.50;99.90;;;;;;4953065;29;20055;-73
2022/05/13 01:29:33;;;;;;;9.65;2.40;;;10.50;99.90;;;;;;4954218;29;20110;-72
2022/05/13 01:31:59;;;;;;;9.02;2.83;;;10.50;99.90;;;;;;4952858;29;20055;-74
2022/05/13 01:34:25;;;;;;;11.23;2.47;;;10.50;99.90;;;;;;4953677;28;20102;-74
2022/05/13 01:36:51;;;;;;;7.38;2.40;;;10.50;99.90;;;;;;4954072;29;20404;-73
2022/05/13 01:39:16;;;;;;;9.23;2.50;;;10.50;99.90;;;;;;4953729;28;20055;-73
2022/05/13 01:41:42;;;;;;;7.50;2.15;;;10.50;99.90;;;;;;4954092;28;20098;-73
2022/05/13 01:44:08;;;;;;;7.25;2.10;;;10.50;99.90;;;;;;4954002;28;20047;-74
2022/05/13 01:46:33;;;;;;;7.88;2.53;;;10.50;99.90;;;;;;4952869;29;20063;-73
2022/05/13 01:49:00;;;;;;;6.55;2.30;;;10.50;99.90;;;;;;4954022;28;20062;-73
2022/05/13 01:51:25;;;;;;;9.75;2.50;;;10.50;99.90;;;;;;4953004;29;20062;-72
2022/05/13 01:53:52;;;;;;;5.97;2.30;;;10.50;99.90;;;;;;4952944;29;20043;-72
2022/05/13 01:56:18;;;;;;;10.77;2.30;;;10.50;99.90;;;;;;4953243;29;20101;-74
2022/05/13 01:58:44;;;;;;;8.88;2.30;;;10.50;99.90;;;;;;4953197;29;20491;-73
2022/05/13 02:01:09;;;;;;;5.38;2.47;;;10.50;99.90;;;;;;4954037;29;20178;-73
2022/05/13 02:03:44;;;;;;;8.77;2.17;;;10.50;99.90;;;;;;4954034;28;20052;-72
2022/05/13 02:06:17;;;;;;;11.15;2.55;;;10.40;99.90;;;;;;4953959;28;20130;-73
2022/05/13 02:08:43;;;;;;;7.10;2.35;;;10.40;99.90;;;;;;4953822;28;20135;-73
2022/05/13 02:11:09;;;;;;;7.18;2.70;;;10.50;99.90;;;;;;4953891;29;20051;-74
2022/05/13 02:13:36;;;;;;;8.05;2.40;;;10.50;99.90;;;;;;4952959;29;20047;-74
2022/05/13 02:16:03;;;;;;;5.70;2.40;;;10.50;99.90;;;;;;4952882;29;20110;-73
2022/05/13 02:18:29;;;;;;;10.38;2.90;;;10.50;99.90;;;;;;4952760;29;20067;-74
2022/05/13 02:20:55;;;;;;;7.03;2.25;;;10.50;99.90;;;;;;4952789;29;20513;-73
2022/05/13 02:23:22;;;;;;;5.47;2.30;;;10.50;99.90;;;;;;4953643;29;20047;-73
2022/05/13 02:25:50;;;;;;;8.90;2.40;;;10.50;99.90;;;;;;4968552;28;20051;-73
2022/05/13 02:28:16;;;;;;;6.25;2.15;;;10.50;99.90;;;;;;4953550;29;20090;-73
2022/05/13 02:30:42;;;;;;;11.27;3.10;;;10.60;99.90;;;;;;4953546;28;20057;-73
2022/05/13 02:33:08;;;;;;;11.30;2.30;;;10.50;99.90;;;;;;4952676;29;20056;-75
2022/05/13 02:35:34;;;;;;;8.17;2.37;;;10.50;99.90;;;;;;4953490;29;20372;-75
2022/05/13 02:38:00;;;;;;;7.25;2.20;;;10.60;99.90;;;;;;4951993;29;20118;-75
2022/05/13 02:41:11;;;;;;;11.00;2.20;;;10.60;99.90;;;;;;4953434;29;20051;-74
2022/05/13 02:43:12;;;;;;;8.93;2.03;;;10.50;99.90;;;;;;4953573;28;20055;-74
2022/05/13 02:45:39;;;;;;;10.90;2.30;;;10.50;99.90;;;;;;4951977;29;20507;-74
2022/05/13 02:48:05;;;;;;;11.18;2.53;;;10.50;99.90;;;;;;4952335;29;20143;-74
2022/05/13 02:50:31;;;;;;;10.02;2.83;;;10.40;99.90;;;;;;4952502;28;20103;-74
2022/05/13 02:52:58;;;;;;;7.43;2.20;;;10.40;99.90;;;;;;4956242;29;20047;-74
2022/05/13 02:55:24;;;;;;;11.30;2.30;;;10.40;99.90;;;;;;4956989;28;20364;-75
2022/05/13 02:57:50;;;;;;;7.85;2.28;;;10.30;99.90;;;;;;4972362;28;20047;-74
2022/05/13 03:00:16;;;;;;;6.38;2.40;;;10.30;99.90;;;;;;4957193;29;20076;-76
2022/05/13 03:02:43;;;;;;;7.97;1.50;;;10.30;99.90;;;;;;4955595;29;20050;-74
2022/05/13 03:05:10;;;;;;;9.95;2.10;;;10.20;99.90;;;;;;4956610;29;20057;-73
2022/05/13 03:07:36;;;;;;;8.88;1.83;;;10.10;99.90;;;;;;4956910;28;20047;-75
2022/05/13 03:10:05;;;;;;;7.30;1.73;;;10.10;99.90;;;;;;4956794;29;20147;-76
2022/05/13 03:12:31;;;;;;;11.32;1.80;;;10.10;99.90;;;;;;4955143;29;20117;-74
2022/05/13 03:14:57;;;;;;;9.68;2.00;;;10.10;99.90;;;;;;4955635;29;20086;-75
2022/05/13 03:17:23;;;;;;;10.93;1.60;;;10.20;99.90;;;;;;4954908;29;20074;-74
2022/05/13 03:19:48;;;;;;;8.52;1.92;;;10.20;99.90;;;;;;4939448;29;20054;-74
2022/05/13 03:22:14;;;;;;;5.80;1.55;;;10.20;99.90;;;;;;4956278;29;20047;-73
2022/05/13 03:24:40;;;;;;;8.88;1.35;;;10.20;99.90;;;;;;4956702;28;20161;-74
2022/05/13 03:27:07;;;;;;;9.07;1.60;;;10.20;99.90;;;;;;4956265;29;20190;-74
2022/05/13 03:29:33;;;;;;;10.73;1.92;;;10.20;99.90;;;;;;4956265;28;20066;-75
2022/05/13 03:31:59;;;;;;;12.43;1.83;;;10.20;99.90;;;;;;4956166;29;20051;-74
2022/05/13 03:34:26;;;;;;;6.68;1.63;;;10.20;99.90;;;;;;4955010;29;20384;-74
2022/05/13 03:36:51;;;;;;;8.25;1.77;;;10.20;99.90;;;;;;4971089;28;20047;-74
2022/05/13 03:39:18;;;;;;;10.30;2.22;;;10.20;99.90;;;;;;4956080;29;20126;-72
2022/05/13 03:41:43;;;;;;;10.38;1.90;;;10.20;99.90;;;;;;4955596;29;20043;-76
2022/05/13 03:44:09;;;;;;;8.23;2.15;;;10.20;99.90;;;;;;4955233;29;20058;-73
2022/05/13 03:46:35;;;;;;;10.77;1.83;;;10.20;99.90;;;;;;4954202;29;20048;-74
2022/05/13 03:49:02;;;;;;;10.43;1.83;;;10.20;99.90;;;;;;4954692;29;20102;-73
2022/05/13 03:51:29;;;;;;;12.48;2.65;;;10.20;99.90;;;;;;4955435;28;20523;-73
2022/05/13 03:53:55;;;;;;;9.00;1.85;;;10.20;99.90;;;;;;4955935;29;20046;-75
2022/05/13 03:56:20;;;;;;;13.43;2.30;;;10.30;99.90;;;;;;4955940;28;20541;-74
2022/05/13 03:58:46;;;;;;;10.25;1.83;;;10.30;99.90;;;;;;4955582;28;20130;-73
2022/05/13 04:01:12;;;;;;;8.85;1.60;;;10.30;99.90;;;;;;4955094;29;20067;-73
2022/05/13 04:03:38;;;;;;;8.70;1.90;;;10.30;99.90;;;;;;4954255;28;20043;-72
2022/05/13 04:08:59;;;;;;;8.70;1.90;;;10.30;99.90;;;;;;4955488;28;20055;-74
2022/05/13 04:11:37;;;;;;;7.55;1.80;;;10.30;99.90;;;;;;4954820;29;20066;-74
2022/05/13 04:16:50;;;;;;;10.30;2.35;;;10.40;99.90;;;;;;4954250;29;20059;-73
2022/05/13 04:19:16;;;;;;;8.55;2.10;;;10.40;99.90;;;;;;4953853;29;20110;-73
2022/05/13 04:21:44;;;;;;;10.48;2.10;;;10.40;99.90;;;;;;4955295;29;20432;-75
2022/05/13 04:24:18;;;;;;;11.40;2.42;;;10.40;99.90;;;;;;4938258;29;20043;-73
2022/05/13 04:26:45;;;;;;;11.27;2.50;;;10.50;99.90;;;;;;4955298;29;20055;-74
2022/05/13 04:29:11;;;;;;;13.43;3.13;;;10.50;99.90;;;;;;4954246;29;20106;-73
2022/05/13 04:31:41;;;;;;;14.60;2.10;;;10.60;99.90;;;;;;4954940;29;20043;-73
2022/05/13 04:34:08;;;;;;;12.40;2.33;;;10.60;99.90;;;;;;4955137;29;20043;-74
2022/05/13 04:36:34;;;;;;;13.27;2.45;;;10.60;99.90;;;;;;4955350;29;20426;-73
2022/05/13 04:39:00;;;;;;;11.80;2.40;;;10.70;99.90;;;;;;4955032;29;20138;-74
2022/05/13 04:44:12;;;;;;;14.85;2.38;;;10.70;99.90;;;;;;4954929;28;20047;-74
2022/05/13 04:46:38;;;;;;;11.18;2.63;;;10.70;99.90;;;;;;4953622;29;20102;-73
2022/05/13 04:49:05;;;;;;;14.48;2.67;;;10.80;99.90;;;;;;4954990;29;20079;-73
2022/05/13 04:51:30;;;;;;;10.82;2.55;;;10.80;99.90;;;;;;4955377;28;20376;-73
2022/05/13 04:53:58;;;;;;;16.08;2.80;;;10.90;99.90;;;;;;4938441;29;20043;-73
2022/05/13 04:56:25;;;;;;;15.68;3.20;;;10.90;99.90;;;;;;4954731;29;20054;-73
2022/05/13 04:58:51;;;;;;;17.13;3.05;;;11.00;99.90;;;;;;4954792;28;20055;-74
2022/05/13 05:01:19;;;;;;;16.38;2.65;;;11.00;99.90;;;;;;4953756;29;20047;-73
2022/05/13 05:03:46;;;;;;;13.13;2.45;;;11.10;99.90;;;;;;4953794;29;20039;-73
2022/05/13 05:06:13;;;;;;;16.87;2.67;;;11.20;99.90;;;;;;4954758;29;20380;-74
2022/05/13 05:08:40;;;;;;;19.88;2.88;;;11.20;99.90;;;;;;4954414;28;20150;-73
2022/05/13 05:11:08;;;;;;;19.98;2.92;;;11.30;99.90;;;;;;4954612;28;20059;-75
2022/05/13 05:13:40;;;;;;;14.65;2.95;;;11.30;99.90;;;;;;4954616;28;20101;-74
2022/05/13 05:16:06;;;;;;;12.00;3.13;;;11.30;99.90;;;;;;4953326;29;20094;-74
2022/05/13 05:18:34;;;;;;;11.23;2.95;;;11.30;99.90;;;;;;4954966;29;20051;-75
2022/05/13 05:21:00;;;;;;;15.52;3.15;;;11.40;99.90;;;;;;4954862;28;20051;-74
2022/05/13 05:23:29;;;;;;;12.02;3.33;;;11.50;99.90;;;;;;4954375;29;20083;-74
2022/05/13 05:25:55;;;;;;;21.27;3.28;;;11.60;99.90;;;;;;4953580;28;20411;-75
2022/05/13 05:28:21;;;;;;;27.52;4.13;;;11.70;99.90;;;;;;4953204;29;20046;-75
2022/05/13 05:30:48;;;;;;;18.30;4.55;;;11.80;99.90;;;;;;4954140;29;20110;-76
2022/05/13 05:33:14;;;;;;;15.80;3.40;;;11.80;99.90;;;;;;4954280;28;20059;-73
2022/05/13 05:35:40;;;;;;;15.07;3.13;;;11.90;99.90;;;;;;4954313;29;20039;-75
2022/05/13 05:38:07;;;;;;;17.17;3.25;;;12.00;99.90;;;;;;4954252;28;20079;-74
2022/05/13 05:40:34;;;;;;;21.77;3.20;;;12.00;99.90;;;;;;4954336;29;20059;-75
2022/05/13 05:43:08;;;;;;;18.90;3.75;;;12.10;99.90;;;;;;4954056;28;20097;-74
2022/05/13 05:45:36;;;;;;;21.33;4.00;;;12.30;99.90;;;;;;4953099;29;20078;-73
2022/05/13 05:48:02;;;;;;;15.63;3.70;;;12.30;99.90;;;;;;4953082;29;20111;-74
2022/05/13 05:50:28;;;;;;;17.38;3.10;;;12.30;99.90;;;;;;4954051;29;20059;-74
2022/05/13 05:52:54;;;;;;;16.98;3.60;;;12.40;99.90;;;;;;4954117;28;20047;-74
2022/05/13 05:58:11;;;;;;;10.60;2.65;;;12.70;99.90;;;;;;4954185;29;20055;-73
2022/05/13 06:00:41;;;;;;;12.27;2.60;;;13.10;99.90;;;;;;4953764;29;20317;-74
2022/05/13 06:03:07;;;;;;;13.55;2.72;;;13.30;99.90;;;;;;4953990;29;20066;-74
2022/05/13 06:05:33;;;;;;;14.20;3.00;;;13.60;99.90;;;;;;4936750;29;20130;-75
2022/05/13 06:08:01;;;;;;;12.80;2.77;;;13.80;99.90;;;;;;4953939;29;20087;-73
2022/05/13 06:10:29;;;;;;;12.77;2.67;;;13.90;99.90;;;;;;4954074;28;20194;-74
2022/05/13 06:12:55;;;;;;;10.35;2.38;;;13.90;99.90;;;;;;4953856;28;20130;-74
2022/05/13 06:15:21;;;;;;;10.90;2.88;;;13.90;99.90;;;;;;4953931;29;20051;-74
2022/05/13 06:17:55;;;;;;;17.52;3.35;;;14.00;99.90;;;;;;4969251;28;20052;-74
2022/05/13 06:20:27;;;;;;;15.80;2.45;;;14.10;99.90;;;;;;4968761;28;20055;-74
2022/05/13 06:22:54;;;;;;;12.88;2.60;;;14.20;99.90;;;;;;4954291;29;20368;-74
2022/05/13 06:25:20;;;;;;;14.37;2.20;;;14.30;99.90;;;;;;4954280;28;20048;-75
2022/05/13 06:27:47;;;;;;;13.27;1.92;;;;;;;;;;4957448;28;20039;-74
2022/05/13 06:30:16;;;;;;;14.23;2.30;;;14.60;99.90;;;;;;4957348;28;20132;-73
2022/05/13 06:32:42;;;;;;;13.18;2.00;;;14.70;99.90;;;;;;4956125;29;20087;-76
2022/05/13 06:35:09;;;;;;;10.98;2.28;;;14.80;99.90;;;;;;4956094;29;20083;-74
2022/05/13 06:37:36;;;;;;;13.15;2.10;;;14.80;99.90;;;;;;4957318;29;20039;-75
2022/05/13 06:40:03;;;;;;;10.43;2.22;;;14.90;99.90;;;;;;4972429;28;20138;-74
2022/05/13 06:42:28;;;;;;;7.80;1.90;;;15.00;99.90;;;;;;4956226;28;20061;-74
2022/05/13 06:44:54;;;;;;;10.88;1.95;;;15.00;99.90;;;;;;4957321;29;20047;-74
2022/05/13 06:47:20;;;;;;;8.68;1.67;;;14.90;99.90;;;;;;4957056;28;20130;-74
2022/05/13 06:49:45;;;;;;;8.65;2.00;;;14.90;99.90;;;;;;4957169;29;20039;-74
2022/05/13 06:52:13;;;;;;;15.35;2.33;;;14.70;99.90;;;;;;4940240;29;20518;-72
2022/05/13 06:54:42;;;;;;;10.55;1.90;;;14.60;99.90;;;;;;4957094;29;20076;-74
2022/05/13 06:57:10;;;;;;;9.60;1.85;;;14.60;99.90;;;;;;4957141;28;20098;-74
2022/05/13 06:59:36;;;;;;;10.77;1.95;;;14.60;99.90;;;;;;4957057;28;20086;-72
2022/05/13 07:02:03;;;;;;;7.85;2.20;;;14.60;99.90;;;;;;4956937;28;20055;-73
2022/05/13 07:04:29;;;;;;;;;;;14.60;99.90;;;;;;4958350;29;20051;-73
2022/05/13 07:06:55;;;;;;;8.90;2.57;;;14.50;99.90;;;;;;4956878;29;19923;-72
2022/05/13 07:09:20;;;;;;;15.77;2.30;;;14.40;99.90;;;;;;4956782;28;20058;-73
2022/05/13 07:11:46;;;;;;;12.38;2.85;;;14.50;99.90;;;;;;4955413;29;20054;-74
2022/05/13 07:14:12;;;;;;;10.60;2.58;;;14.70;99.90;;;;;;4955633;28;20070;-73
2022/05/13 07:16:38;;;;;;;8.47;1.97;;;14.80;99.90;;;;;;4956752;28;20082;-72
2022/05/13 07:19:05;;;;;;;12.40;2.10;;;14.90;99.90;;;;;;4956243;29;20354;-73
2022/05/13 07:21:30;;;;;;;12.10;2.33;;;14.90;99.90;;;;;;4971318;28;20511;-73
2022/05/13 07:23:56;;;;;;;12.90;2.55;;;15.00;99.90;;;;;;4956472;29;20039;-74
2022/05/13 07:26:22;;;;;;;8.57;1.80;;;14.90;99.90;;;;;;4956504;28;20040;-73
2022/05/13 07:28:48;;;;;;;6.72;1.35;;;15.00;99.90;;;;;;4955168;28;20043;-75
2022/05/13 07:31:14;;;;;;;8.13;1.20;;;15.00;99.90;;;;;;4956691;29;20047;-72
2022/05/13 07:33:40;;;;;;;10.25;2.00;;;14.90;99.90;;;;;;4956361;28;20098;-73
2022/05/13 07:36:06;;;;;;;8.13;1.20;;;14.90;99.90;;;;;;4956249;28;20130;-74
2022/05/13 07:38:32;;;;;;;7.90;1.23;;;15.10;99.90;;;;;;4955595;28;20093;-73
2022/05/13 07:41:17;;;;;;;9.63;1.33;;;15.10;99.90;;;;;;4955150;29;20122;-73
2022/05/13 07:43:44;;;;;;;9.57;1.55;;;15.00;99.90;;;;;;4955121;29;20074;-75
2022/05/13 07:46:10;;;;;;;8.57;1.50;;;15.30;99.90;;;;;;4954698;29;20062;-73
2022/05/13 07:48:39;;;;;;;7.45;1.25;;;15.60;99.90;;;;;;4956050;29;20086;-74
2022/05/13 07:51:05;;;;;;;7.50;1.05;;;15.90;99.90;;;;;;4956018;28;20146;-73
2022/05/13 07:53:31;;;;;;;5.20;1.15;;;16.20;99.90;;;;;;4955604;29;20122;-72
2022/05/13 07:55:57;;;;;;;3.67;0.95;;;16.40;99.90;;;;;;4954373;28;20054;-73
2022/05/13 07:58:23;;;;;;;7.25;1.20;;;16.40;99.90;;;;;;4954913;28;20047;-73
2022/05/13 08:00:49;;;;;;;8.38;1.40;;;16.50;99.90;;;;;;4955954;29;20130;-75
2022/05/13 08:03:16;;;;;;;4.45;0.88;;;16.40;99.90;;;;;;4938849;29;20048;-74
2022/05/13 08:05:48;;;;;;;11.25;0.70;;;16.60;99.90;;;;;;4955931;28;20059;-73
2022/05/13 08:08:17;;;;;;;4.25;1.00;;;16.60;99.90;;;;;;4954736;29;20054;-73
2022/05/13 08:10:49;;;;;;;5.68;0.88;;;16.60;99.90;;;;;;4954212;28;20059;-74
2022/05/13 08:13:15;;;;;;;6.63;0.93;;;16.70;99.90;;;;;;4954677;29;20050;-74
2022/05/13 08:15:41;;;;;;;7.80;1.47;;;16.50;99.90;;;;;;4955790;28;20514;-73
2022/05/13 08:18:07;;;;;;;5.40;0.70;;;16.40;99.90;;;;;;4955162;29;20279;-74
2022/05/13 08:20:33;;;;;;;8.10;0.95;;;16.40;99.90;;;;;;4955578;28;20050;-73
2022/05/13 08:22:59;;;;;;;6.00;0.80;;;16.50;99.90;;;;;;4938467;29;20051;-73
2022/05/13 08:25:25;;;;;;;6.45;1.02;;;16.60;99.90;;;;;;4955314;29;20124;-72
2022/05/13 08:27:51;;;;;;;6.05;0.80;;;16.70;99.90;;;;;;4954599;28;20134;-69
2022/05/13 08:30:18;;;;;;;6.43;0.82;;;16.60;99.90;;;;;;4955502;28;20051;-72
2022/05/13 08:32:44;;;;;;;7.32;0.60;;;16.40;99.90;;;;;;4955200;29;20414;-72
2022/05/13 08:35:12;;;;;;;6.22;0.60;;;16.30;99.90;;;;;;4954402;29;20051;-72
2022/05/13 08:37:47;;;;;;;5.63;1.00;;;16.40;99.90;;;;;;4954153;29;20144;-73
2022/05/13 08:40:49;;;;;;;2.50;0.60;;;16.30;99.90;;;;;;4955369;29;20043;-73
2022/05/13 08:43:18;;;;;;;7.60;1.20;;;16.60;99.90;;;;;;4951854;29;20400;-73
2022/05/13 08:46:12;;;;;;;9.20;1.33;;;16.90;99.90;;;;;;4955216;28;20051;-73
2022/05/13 08:49:07;;;;;;;6.65;0.90;;;16.80;99.90;;;;;;4955812;28;20404;-73
2022/05/13 08:51:51;;;;;;;6.43;0.80;;;17.10;99.90;;;;;;4947033;29;20375;-71
2022/05/13 08:54:23;;;;;;;5.30;1.10;;;17.00;99.90;;;;;;4955086;29;20039;-72
2022/05/13 08:56:54;;;;;;;6.40;0.80;;;17.00;99.90;;;;;;4954887;29;20051;-71
2022/05/13 08:59:44;;;;;;;9.50;0.88;;;17.10;99.90;;;;;;4955393;28;20511;-71
2022/05/13 09:02:23;;;;;;;7.32;0.77;;;17.20;99.90;;;;;;4954390;28;20051;-71
2022/05/13 09:04:59;;;;;;;5.05;0.80;;;17.20;99.90;;;;;;4954804;28;20043;-70
2022/05/13 09:07:25;;;;;;;8.73;1.08;;;17.30;99.90;;;;;;4955143;29;20122;-72
2022/05/13 09:09:55;;;;;;;6.63;0.88;;;17.30;99.90;;;;;;4954608;28;20476;-72
2022/05/13 09:12:30;;;;;;;6.85;0.90;;;17.50;99.90;;;;;;4954091;29;20113;-72
2022/05/13 09:15:01;;;;;;;9.77;0.93;;;17.30;99.90;;;;;;4954618;28;20119;-71
2022/05/13 09:17:35;;;;;;;8.88;1.08;;;17.30;99.90;;;;;;4953255;29;20109;-73
2022/05/13 09:20:13;;;;;;;4.85;0.93;;;17.30;99.90;;;;;;4954263;28;20519;-75
2022/05/13 09:22:45;;;;;;;7.57;1.00;;;17.50;99.90;;;;;;4954528;28;20090;-72
2022/05/13 09:25:36;;;;;;;11.40;0.95;;;17.70;99.90;;;;;;4937514;29;20051;-74
2022/05/13 09:28:11;;;;;;;14.32;1.23;;;17.70;99.90;;;;;;4968883;28;20043;-74
2022/05/13 09:30:41;;;;;;;10.68;0.90;;;17.70;99.90;;;;;;4953278;29;20447;-74
2022/05/13 09:33:26;;;;;;;6.90;1.13;;;17.70;99.90;;;;;;4954372;29;20050;-72
2022/05/13 09:35:55;;;;;;;5.88;0.85;;;17.80;99.90;;;;;;4954246;29;20055;-72
2022/05/13 09:38:26;;;;;;;6.75;0.93;;;17.60;99.90;;;;;;4954039;28;20091;-73
2022/05/13 09:40:59;;;;;;;13.70;1.83;;;17.30;99.90;;;;;;4937850;29;20130;-72
2022/05/13 09:43:34;;;;;;;5.30;1.00;;;17.30;99.90;;;;;;4968807;28;20377;-72
2022/05/13 09:46:10;;;;;;;5.35;0.80;;;17.20;99.90;;;;;;4954489;29;20051;-73
2022/05/13 09:48:50;;;;;;;4.80;0.77;;;17.30;99.90;;;;;;4937426;29;20515;-73
2022/05/13 09:51:33;;;;;;;4.55;0.50;;;17.30;99.90;;;;;;4954254;28;20110;-73
2022/05/13 09:54:02;;;;;;;6.70;0.73;;;17.50;99.90;;;;;;4954329;28;20406;-72
2022/05/13 09:56:44;;;;;;;8.23;0.95;;;17.60;98.90;;;;;;4954455;28;20047;-73
2022/05/13 09:59:20;;;;;;;5.70;0.70;;;17.90;99.30;;;;;;4954744;28;20094;-76
2022/05/13 10:01:46;;;;;;;6.65;1.10;;;18.00;99.50;;;;;;4956123;28;20044;-73
2022/05/13 10:04:20;;;;;;;7.53;0.75;;;18.20;99.40;;;;;;4957936;28;20047;-73
2022/05/13 10:06:47;;;;;;;6.05;0.70;;;18.50;98.60;;;;;;4957894;28;20047;-75
2022/05/13 10:15:29;;;;;;;5.80;0.85;;;18.00;96.90;;;;;;4958245;29;20129;-73
2022/05/13 10:18:02;;;;;;;6.50;0.90;;;18.00;97.60;;;;;;4956800;28;20047;-71
2022/05/13 10:20:30;;;;;;;9.43;1.40;;;18.00;97.50;;;;;;4957217;29;20043;-71
2022/05/13 10:23:00;;;;;;;7.25;1.08;;;17.70;97.90;;;;;;4972625;28;20117;-73
2022/05/13 10:25:32;;;;;;;7.03;1.20;;;18.00;96.90;;;;;;4957940;29;20047;-73
2022/05/13 10:28:09;;;;;;;6.90;1.58;;;18.10;96.40;;;;;;4956703;29;20094;-74
2022/05/13 10:30:45;;;;;;;6.38;1.60;;;18.20;96.90;;;;;;4957600;29;20136;-73
2022/05/13 10:33:38;;;;;;;8.13;1.98;;;18.40;96.80;;;;;;4957136;28;20050;-73
2022/05/13 10:36:14;;;;;;;10.55;3.05;;;18.50;96.70;;;;;;4956607;28;20086;-74
2022/05/13 10:39:01;;;;;;;12.23;2.50;;;18.70;96.40;;;;;;4956845;29;20075;-72
2022/05/13 10:42:11;;;;;;;11.27;2.03;;;18.80;96.30;;;;;;4956419;29;20047;-73
2022/05/13 10:44:47;;;;;;;8.68;2.00;;;18.90;95.30;;;;;;4957719;28;20043;-73
2022/05/13 10:47:34;;;;;;;7.10;2.28;;;19.10;95.20;;;;;;4956098;29;20387;-73
2022/05/13 10:49:59;;;;;;;;;;;19.20;94.50;;;;;;4958467;28;20320;-74
2022/05/13 10:52:55;;;;;;;6.73;1.90;;;19.00;93.90;;;;;;4957129;28;19918;-72
2022/05/13 10:55:31;;;;;;;11.52;2.20;;;19.10;94.70;;;;;;4956201;29;20047;-74
2022/05/13 10:58:06;;;;;;;;;;;19.30;93.70;;;;;;4956948;29;20120;-71
2022/05/13 11:00:43;;;;;;;3.35;0.70;;;19.50;92.50;;;;;;4957149;28;19980;-72
2022/05/13 11:03:27;;;;;;;;;;;19.50;91.10;;;;;;4957078;29;20055;-73
2022/05/13 11:06:28;;;;;;;5.30;1.10;;;19.50;91.20;;;;;;4955994;29;19922;-72
2022/05/13 11:09:09;;;;;;;5.72;1.25;;;19.70;91.30;;;;;;4957054;28;20063;-71
2022/05/13 11:11:45;;;;;;;7.18;1.80;;;19.70;90.40;;;;;;4956106;28;20117;-72
2022/05/13 11:14:34;;;;;;;9.10;1.77;;;19.60;89.30;;;;;;4956239;28;20082;-73
2022/05/13 11:17:03;;;;;;;9.43;2.17;;;19.50;90.80;;;;;;4956787;28;20078;-71
2022/05/13 11:19:43;;;;;;;6.13;1.58;;;19.60;91.30;;;;;;4955378;29;20554;-73
2022/05/13 11:22:50;;;;;;;8.55;2.10;;;19.90;90.80;;;;;;4956747;29;20086;-72
2022/05/13 11:28:39;;;;;;;7.25;1.80;;;19.60;90.40;;;;;;4956643;28;20043;-73
2022/05/13 11:31:16;;;;;;;;;;;19.40;89.90;;;;;;4956874;29;20116;-73
2022/05/13 11:34:05;;;;;;;4.72;1.40;;;19.30;89.20;;;;;;4956473;28;19918;-72
2022/05/13 11:36:54;;;;;;;7.78;1.60;;;19.40;88.30;;;;;;4971048;28;20046;-73
2022/05/13 11:40:06;;;;;;;15.35;2.75;;;19.40;88.30;;;;;;4956930;28;20043;-73
2022/05/13 11:45:52;;;;;;;8.07;1.55;;;19.60;88.30;;;;;;4956939;29;20073;-72
2022/05/13 11:48:27;;;;;;;6.78;1.58;;;19.60;88.10;;;;;;4957500;28;20435;-74
2022/05/13 11:51:12;;;;;;;7.63;1.27;;;19.50;90.30;;;;;;4956886;28;20054;-73
2022/05/13 11:53:41;;;;;;;6.50;1.13;;;19.40;86.90;;;;;;4956263;28;20058;-72
2022/05/13 11:56:19;;;;;;;3.50;0.93;;;19.50;86.70;;;;;;4955707;29;20039;-73
2022/05/13 11:58:49;;;;;;;10.90;1.30;;;19.80;86.80;;;;;;4971392;28;20043;-73
2022/05/13 12:01:38;;;;;;;7.40;1.13;;;19.90;87.50;;;;;;4955134;29;20039;-74
2022/05/13 12:04:12;;;;;;;8.10;1.02;;;19.80;84.40;;;;;;4945269;28;20047;-71
2022/05/13 12:06:50;;;;;;;7.72;1.30;;;19.90;83.00;;;;;;4954764;29;20112;-74
2022/05/13 12:09:22;;;;;;;10.80;1.48;;;20.10;84.20;;;;;;4956191;28;20081;-74
2022/05/13 12:12:06;;;;;;;9.55;0.98;;;20.30;84.70;;;;;;4955738;29;20498;-75
2022/05/13 12:14:41;;;;;;;7.00;1.20;;;19.70;82.50;;;;;;4954471;29;20262;-73
2022/05/13 12:17:26;;;;;;;6.97;1.10;;;19.60;84.10;;;;;;4954855;29;20367;-73
2022/05/13 12:20:04;;;;;;;5.05;0.93;;;19.30;83.50;;;;;;4954667;29;20046;-73
2022/05/13 12:22:34;;;;;;;7.40;1.20;;;19.30;85.70;;;;;;4955410;28;20420;-74
2022/05/13 12:25:32;;;;;;;5.50;0.98;;;19.60;85.20;;;;;;4954844;28;20051;-73
2022/05/13 12:28:05;;;;;;;6.63;1.40;;;19.90;83.90;;;;;;4954593;29;20091;-73
2022/05/13 12:30:33;;;;;;;11.80;1.10;;;20.00;83.90;;;;;;4955277;28;20525;-74
2022/05/13 12:33:23;;;;;;;7.88;0.80;;;20.00;84.70;;;;;;4969931;28;20589;-73
2022/05/13 12:39:05;;;;;;;7.05;1.10;;;19.80;81.60;;;;;;4955650;29;20054;-72
2022/05/13 12:41:46;;;;;;;11.25;1.00;;;19.30;79.20;;;;;;4955264;29;20047;-74
2022/05/13 12:44:22;;;;;;;2.80;0.45;;;19.40;80.00;;;;;;4954433;29;20043;-73
2022/05/13 12:46:50;;;;;;;;;;;19.50;81.10;;;;;;4971044;28;20055;-73
2022/05/13 12:49:26;;;;;;;5.18;0.70;;;19.40;82.20;;;;;;4954118;29;19925;-74
2022/05/13 12:52:09;;;;;;;5.72;0.85;;;19.50;78.80;;;;;;4954231;29;20065;-75
2022/05/13 12:54:45;;;;;;;5.45;0.98;;;19.30;80.50;;;;;;4955679;28;20043;-74
2022/05/13 12:57:25;;;;;;;4.95;0.80;;;19.50;81.40;;;;;;4954188;29;20078;-75
2022/05/13 12:59:53;;;;;;;8.40;0.90;;;19.60;79.70;;;;;;4954821;29;20355;-73
2022/05/13 13:02:29;;;;;;;8.80;0.88;;;19.50;79.30;;;;;;4953803;29;20089;-73
2022/05/13 13:05:03;;;;;;;11.20;0.90;;;19.50;80.50;;;;;;4955552;29;20043;-74
2022/05/13 13:07:32;;;;;;;7.30;1.17;;;19.50;80.10;;;;;;4955232;28;20054;-74
2022/05/13 13:09:58;;;;;;;6.53;0.93;;;19.50;80.90;;;;;;4954211;29;20055;-75
2022/05/13 13:12:46;;;;;;;6.60;0.70;;;19.60;79.40;;;;;;4954151;29;20054;-74
2022/05/13 13:15:37;;;;;;;8.68;1.10;;;19.80;79.20;;;;;;4954074;29;20466;-74
2022/05/13 13:18:10;;;;;;;7.38;0.80;;;19.10;80.40;;;;;;4954852;28;20565;-73
2022/05/13 13:21:10;;;;;;;9.70;1.00;;;19.30;79.10;;;;;;4953965;29;20067;-72
2022/05/13 13:23:40;;;;;;;7.25;0.80;;;19.40;78.60;;;;;;4950617;28;20058;-73
2022/05/13 13:26:09;;;;;;;6.93;1.00;;;19.40;79.50;;;;;;4954372;28;20452;-75
2022/05/13 13:28:39;;;;;;;5.82;0.80;;;19.40;79.30;;;;;;4953632;29;20039;-77
2022/05/13 13:31:10;;;;;;;10.07;0.80;;;19.20;80.00;;;;;;4954514;28;20402;-77
2022/05/13 13:33:43;;;;;;;6.82;0.80;;;19.20;79.50;;;;;;4954094;29;20078;-76